Time;durP1;ratioP1;P1;durP2;ratioP2;P2;SDS_P1;SDS_P2;PMS_P1;PMS_P2;Temp;Humidity;BMP_temperature;BMP_pressure;BME280_temperature;BME280_humidity;BME280_pressure;Samples;Min_cycle;Max_cycle;Signal;HPM_P1;HPM_P2
2023/10/24 00:00:34;;;;;;;11.73;6.80;;;;;;;;;;5053264;28;20021;-72
2023/10/24 00:02:59;;;;;;;14.05;6.40;;;;;;;;;;5053249;28;20734;-72
2023/10/24 00:05:24;;;;;;;12.33;6.07;;;;;;;;;;5035318;28;20476;-72
2023/10/24 00:07:50;;;;;;;9.90;6.20;;;;;;;;;;5053306;28;20266;-72
2023/10/24 00:10:16;;;;;;;10.07;5.88;;;;;;;;;;5052996;28;20279;-72
2023/10/24 00:12:41;;;;;;;8.63;5.65;;;;;;;;;;5053002;28;20045;-71
2023/10/24 00:15:06;;;;;;;9.27;5.50;;;;;;;;;;5053174;28;20520;-72
2023/10/24 00:17:31;;;;;;;8.40;4.97;;;;;;;;;;5035240;28;20460;-72
2023/10/24 00:19:56;;;;;;;9.50;5.33;;;;;;;;;;5053212;28;20373;-72
2023/10/24 00:22:22;;;;;;;8.20;4.80;;;;;;;;;;5053055;28;20151;-72
2023/10/24 00:24:47;;;;;;;7.40;4.50;;;;;;;;;;5052905;28;20745;-72
2023/10/24 00:27:12;;;;;;;6.30;4.35;;;;;;;;;;5053020;28;20017;-73
2023/10/24 00:29:37;;;;;;;6.80;4.40;;;;;;;;;;5052935;28;20096;-72
2023/10/24 00:32:03;;;;;;;8.90;5.20;;;;;;;;;;5053067;28;20275;-72
2023/10/24 00:34:28;;;;;;;7.05;4.88;;;;;;;;;;5052896;28;20252;-72
2023/10/24 00:36:53;;;;;;;6.47;4.50;;;;;;;;;;5052930;28;20143;-72
2023/10/24 00:39:18;;;;;;;9.80;4.60;;;;;;;;;;5034910;28;20275;-72
2023/10/24 00:41:43;;;;;;;6.90;4.93;;;;;;;;;;5053031;28;20027;-72
2023/10/24 00:44:09;;;;;;;6.43;4.83;;;;;;;;;;5052832;28;20275;-72
2023/10/24 00:46:36;;;;;;;7.88;4.65;;;;;;;;;;5034976;28;20267;-72
2023/10/24 00:49:02;;;;;;;7.57;4.82;;;;;;;;;;5053857;28;20507;-72
2023/10/24 00:51:27;;;;;;;8.30;5.20;;;;;;;;;;5056598;28;20021;-72
2023/10/24 00:53:52;;;;;;;6.13;4.67;;;;;;;;;;5056633;28;20024;-72
2023/10/24 00:56:18;;;;;;;7.63;4.80;;;;;;;;;;5056505;28;20405;-72
2023/10/24 00:58:44;;;;;;;7.30;5.15;;;;;;;;;;5056620;28;20021;-73
2023/10/24 01:01:10;;;;;;;5.57;4.72;;;;;;;;;;5056582;28;20100;-73
2023/10/24 01:03:36;;;;;;;6.68;4.60;;;;;;;;;;5056412;28;20016;-73
2023/10/24 01:06:02;;;;;;;6.15;4.82;;;;;;;;;;5038482;28;20021;-72
2023/10/24 01:08:27;;;;;;;7.13;4.70;;;;;;;;;;5038396;28;20389;-73
2023/10/24 01:10:52;;;;;;;8.07;4.60;;;;;;;;;;5056123;28;20384;-73
2023/10/24 01:13:17;;;;;;;7.07;5.20;;;;;;;;;;5056177;28;20083;-73
2023/10/24 01:15:43;;;;;;;6.80;4.95;;;;;;;;;;5056170;28;20021;-72
2023/10/24 01:18:08;;;;;;;6.95;5.28;;;;;;;;;;5056263;28;20017;-72
2023/10/24 01:20:33;;;;;;;8.27;5.80;;;;;;;;;;5056047;28;20116;-73
2023/10/24 01:22:58;;;;;;;10.23;5.77;;;;;;;;;;5056053;28;20028;-72
2023/10/24 01:25:24;;;;;;;7.80;6.07;;;;;;;;;;5056095;28;20107;-73
2023/10/24 01:27:53;;;;;;;8.18;5.68;;;;;;;;;;5056023;28;20116;-72
2023/10/24 01:30:19;;;;;;;8.35;5.50;;;;;;;;;;5055908;28;20025;-72
2023/10/24 01:32:44;;;;;;;10.10;6.28;;;;;;;;;;5038114;28;20017;-73
2023/10/24 01:35:09;;;;;;;10.50;6.50;;;;;;;;;;5055824;28;20028;-73
2023/10/24 01:37:35;;;;;;;10.63;7.20;;;;;;;;;;5055666;28;20487;-72
2023/10/24 01:40:01;;;;;;;13.57;7.38;;;;;;;;;;5055733;28;20013;-73
2023/10/24 01:42:26;;;;;;;11.10;8.30;;;;;;;;;;5055768;28;20021;-73
2023/10/24 01:44:51;;;;;;;10.85;8.02;;;;;;;;;;5055553;28;20742;-73
2023/10/24 01:47:16;;;;;;;12.80;8.80;;;;;;;;;;5055851;28;20020;-73
2023/10/24 01:49:41;;;;;;;14.63;9.80;;;;;;;;;;5055699;28;20271;-73
2023/10/24 01:52:06;;;;;;;13.43;9.40;;;;;;;;;;5037536;28;20021;-72
2023/10/24 01:54:32;;;;;;;14.60;10.20;;;;;;;;;;5055411;28;20262;-72
2023/10/24 01:56:57;;;;;;;17.47;10.47;;;;;;;;;;5055407;28;20090;-72
2023/10/24 01:59:22;;;;;;;21.20;11.40;;;;;;;;;;5055317;28;20259;-73
2023/10/24 02:01:47;;;;;;;17.67;11.13;;;;;;;;;;5054581;28;20021;-73
2023/10/24 02:04:12;;;;;;;19.27;11.93;;;;;;;;;;5055364;28;20374;-73
2023/10/24 02:06:37;;;;;;;15.73;11.17;;;;;;;;;;5055462;28;20267;-73
2023/10/24 02:09:03;;;;;;;20.10;12.00;;;;;;;;;;5037482;28;20290;-73
2023/10/24 02:11:28;;;;;;;22.45;12.55;;;;;;;;;;5054963;28;20298;-73
2023/10/24 02:13:53;;;;;;;17.60;12.30;;;;;;;;;;5055128;28;20017;-72
2023/10/24 02:16:19;;;;;;;26.25;13.02;;;;;;;;;;5055018;28;20309;-72
2023/10/24 02:18:44;;;;;;;21.20;12.50;;;;;;;;;;5055339;28;20071;-72
2023/10/24 02:21:09;;;;;;;18.40;12.32;;;;;;;;;;5055109;28;20033;-73
2023/10/24 02:23:35;;;;;;;17.33;12.10;;;;;;;;;;5055054;28;20055;-72
2023/10/24 02:26:02;;;;;;;23.30;12.75;;;;;;;;;;5054935;28;20021;-72
2023/10/24 02:28:27;;;;;;;23.77;11.88;;;;;;;;;;5054914;28;20017;-72
2023/10/24 02:30:52;;;;;;;19.40;12.13;;;;;;;;;;5036788;28;20499;-72
2023/10/24 02:33:17;;;;;;;21.05;11.80;;;;;;;;;;5054858;28;20020;-72
2023/10/24 02:35:42;;;;;;;21.23;11.97;;;;;;;;;;5036775;28;20027;-72
2023/10/24 02:38:07;;;;;;;21.65;12.18;;;;;;;;;;5036722;28;20460;-71
2023/10/24 02:40:32;;;;;;;16.20;11.60;;;;;;;;;;5054928;28;20031;-72
2023/10/24 02:42:58;;;;;;;17.43;11.50;;;;;;;;;;5054853;28;20021;-72
2023/10/24 02:45:23;;;;;;;16.60;11.20;;;;;;;;;;5054879;28;20025;-72
2023/10/24 02:47:48;;;;;;;17.42;11.52;;;;;;;;;;5054406;28;20365;-73
2023/10/24 02:50:14;;;;;;;18.42;11.43;;;;;;;;;;5054350;28;20025;-73
2023/10/24 02:52:39;;;;;;;15.27;11.00;;;;;;;;;;5054580;28;20388;-72
2023/10/24 02:55:05;;;;;;;16.92;12.25;;;;;;;;;;5054346;28;20549;-73
2023/10/24 02:57:31;;;;;;;16.80;11.43;;;;;;;;;;5054121;28;20032;-73
2023/10/24 02:59:56;;;;;;;17.08;11.10;;;;;;;;;;5054082;28;20017;-73
2023/10/24 03:02:21;;;;;;;17.60;12.23;;;;;;;;;;5054113;28;20021;-73
2023/10/24 03:04:46;;;;;;;15.83;10.97;;;;;;;;;;5054088;28;20270;-73
2023/10/24 03:07:11;;;;;;;17.03;10.93;;;;;;;;;;5054066;28;20662;-72
2023/10/24 03:09:37;;;;;;;16.35;11.20;;;;;;;;;;5053871;28;20017;-73
2023/10/24 03:12:05;;;;;;;16.08;10.98;;;;;;;;;;5053738;28;20045;-72
2023/10/24 03:14:30;;;;;;;15.68;10.20;;;;;;;;;;5053849;28;20392;-73
2023/10/24 03:17:10;;;;;;;15.90;10.63;;;;;;;;;;5010191;28;20080;-73
2023/10/24 03:19:35;;;;;;;18.95;11.02;;;;;;;;;;5053944;28;20036;-72
2023/10/24 03:22:00;;;;;;;17.60;10.83;;;;;;;;;;5054113;28;20443;-72
2023/10/24 03:24:29;;;;;;;17.73;11.10;;;;;;;;;;5053826;28;20063;-72
2023/10/24 03:26:54;;;;;;;19.50;10.48;;;;;;;;;;5053812;28;20636;-73
2023/10/24 03:29:19;;;;;;;19.38;11.35;;;;;;;;;;5053823;28;20108;-72
2023/10/24 03:31:44;;;;;;;14.73;10.20;;;;;;;;;;5053709;28;20067;-72
2023/10/24 03:34:09;;;;;;;18.83;11.33;;;;;;;;;;5053583;28;20086;-72
2023/10/24 03:36:34;;;;;;;16.07;9.87;;;;;;;;;;5053675;28;20057;-72
2023/10/24 03:39:00;;;;;;;17.83;10.63;;;;;;;;;;5052204;28;20816;-72
2023/10/24 03:41:25;;;;;;;12.63;10.07;;;;;;;;;;5053561;28;20029;-72
2023/10/24 03:43:51;;;;;;;15.47;9.63;;;;;;;;;;5035622;28;20279;-72
2023/10/24 03:46:17;;;;;;;14.93;10.02;;;;;;;;;;5035549;28;20267;-73
2023/10/24 03:48:42;;;;;;;17.47;10.80;;;;;;;;;;5053360;28;20024;-72
2023/10/24 03:51:08;;;;;;;19.42;11.85;;;;;;;;;;5035419;28;20287;-72
2023/10/24 03:53:33;;;;;;;20.17;11.48;;;;;;;;;;5053199;28;20013;-73
2023/10/24 03:55:59;;;;;;;20.97;11.80;;;;;;;;;;5053437;28;20025;-72
2023/10/24 03:58:24;;;;;;;21.48;11.95;;;;;;;;;;5053368;28;20971;-72
2023/10/24 04:00:50;;;;;;;17.77;11.20;;;;;;;;;;5053150;28;20099;-71
2023/10/24 04:03:15;;;;;;;17.33;11.40;;;;;;;;;;5053229;28;20029;-72
2023/10/24 04:05:40;;;;;;;16.13;10.63;;;;;;;;;;5053224;28;20267;-72
2023/10/24 04:08:05;;;;;;;14.38;10.05;;;;;;;;;;5053251;28;20325;-72
2023/10/24 04:10:32;;;;;;;15.75;10.40;;;;;;;;;;5052915;28;20025;-73
2023/10/24 04:12:57;;;;;;;17.85;10.45;;;;;;;;;;5052891;28;20076;-73
2023/10/24 04:15:23;;;;;;;13.97;10.10;;;;;;;;;;5053187;28;20024;-72
2023/10/24 04:17:48;;;;;;;18.00;10.15;;;;;;;;;;5053062;28;20488;-73
2023/10/24 04:20:14;;;;;;;18.20;10.53;;;;;;;;;;5053099;28;20056;-73
2023/10/24 04:22:39;;;;;;;16.33;10.53;;;;;;;;;;5052943;28;20021;-72
2023/10/24 04:25:04;;;;;;;18.10;11.33;;;;;;;;;;5055952;28;20289;-73
2023/10/24 04:27:29;;;;;;;18.00;10.95;;;;;;;;;;5056985;28;20287;-73
2023/10/24 04:29:55;;;;;;;18.93;11.33;;;;;;;;;;5056898;28;20016;-72
2023/10/24 04:32:20;;;;;;;20.97;11.80;;;;;;;;;;5057009;28;20777;-73
2023/10/24 04:34:45;;;;;;;17.47;11.40;;;;;;;;;;5039227;28;20275;-73
2023/10/24 04:37:10;;;;;;;22.10;11.93;;;;;;;;;;5056850;28;20028;-73
2023/10/24 04:39:35;;;;;;;19.83;12.07;;;;;;;;;;5056980;28;20021;-73
2023/10/24 04:42:00;;;;;;;19.23;11.83;;;;;;;;;;5056790;28;20420;-73
2023/10/24 04:44:26;;;;;;;18.23;12.67;;;;;;;;;;5056917;28;20336;-73
2023/10/24 04:46:51;;;;;;;17.87;11.47;;;;;;;;;;5056745;28;20255;-72
2023/10/24 04:49:16;;;;;;;18.55;12.25;;;;;;;;;;5056651;28;20739;-73
2023/10/24 04:51:42;;;;;;;19.13;12.45;;;;;;;;;;5056465;28;20021;-73
2023/10/24 04:54:07;;;;;;;18.17;12.50;;;;;;;;;;5056576;28;20095;-73
2023/10/24 04:56:32;;;;;;;19.77;12.48;;;;;;;;;;5056543;28;20015;-73
2023/10/24 04:58:57;;;;;;;20.30;12.60;;;;;;;;;;5056719;28;20044;-73
2023/10/24 05:01:22;;;;;;;24.02;12.63;;;;;;;;;;5056390;28;20346;-73
2023/10/24 05:03:47;;;;;;;18.13;12.33;;;;;;;;;;5056428;28;20100;-73
2023/10/24 05:06:13;;;;;;;23.77;13.10;;;;;;;;;;5056669;28;20256;-73
2023/10/24 05:08:38;;;;;;;20.65;12.27;;;;;;;;;;5056300;28;20325;-73
2023/10/24 05:11:03;;;;;;;22.00;13.38;;;;;;;;;;5055921;28;20029;-73
2023/10/24 05:13:29;;;;;;;21.30;13.48;;;;;;;;;;5056210;28;20025;-72
2023/10/24 05:15:54;;;;;;;19.07;13.27;;;;;;;;;;5038350;28;20021;-72
2023/10/24 05:18:19;;;;;;;20.90;12.60;;;;;;;;;;5056239;28;20019;-71
2023/10/24 05:20:45;;;;;;;20.43;13.40;;;;;;;;;;5056354;28;20017;-72
2023/10/24 05:23:10;;;;;;;27.17;14.18;;;;;;;;;;5056099;28;20013;-72
2023/10/24 05:25:36;;;;;;;21.42;13.90;;;;;;;;;;5056219;28;20029;-72
2023/10/24 05:28:01;;;;;;;23.73;13.65;;;;;;;;;;5056420;28;20095;-73
2023/10/24 05:30:26;;;;;;;23.27;13.90;;;;;;;;;;5056269;28;20163;-72
2023/10/24 05:32:52;;;;;;;23.40;14.30;;;;;;;;;;5056404;28;20021;-73
2023/10/24 05:35:17;;;;;;;20.07;14.17;;;;;;;;;;5057546;28;20361;-73
2023/10/24 05:37:42;;;;;;;22.20;14.33;;;;;;;;;;5057193;28;20295;-72
2023/10/24 05:40:07;;;;;;;22.53;14.20;;;;;;;;;;5057014;28;20445;-72
2023/10/24 05:42:33;;;;;;;22.55;14.43;;;;;;;;;;5059979;28;20259;-73
2023/10/24 05:44:58;;;;;;;19.77;13.50;;;;;;;;;;5061507;28;20078;-72
2023/10/24 05:47:23;;;;;;;21.67;13.80;;;;;;;;;;5061737;28;20392;-72
2023/10/24 05:49:49;;;;;;;18.83;13.10;;;;;;;;;;5043443;28;20021;-72
2023/10/24 05:52:15;;;;;;;18.75;13.40;;;;;;;;;;5061336;28;20362;-72
2023/10/24 05:54:40;;;;;;;17.70;12.70;;;;;;;;;;5061551;28;20488;-72
2023/10/24 05:57:05;;;;;;;21.03;13.87;;;;;;;;;;5056897;28;20099;-73
2023/10/24 05:59:32;;;;;;;20.80;13.30;;;;;;;;;;5056530;28;20464;-72
2023/10/24 06:01:57;;;;;;;22.05;13.57;;;;;;;;;;5056470;28;20255;-72
2023/10/24 06:04:22;;;;;;;23.07;13.80;;;;;;;;;;5056075;28;20023;-72
2023/10/24 06:06:47;;;;;;;19.50;13.60;;;;;;;;;;5055988;28;20734;-72
2023/10/24 06:09:13;;;;;;;21.90;14.85;;;;;;;;;;5055988;28;20310;-72
2023/10/24 06:11:38;;;;;;;23.67;14.27;;;;;;;;;;5055433;28;20041;-72
2023/10/24 06:14:04;;;;;;;21.20;13.70;;;;;;;;;;5055418;28;20016;-71
2023/10/24 06:16:29;;;;;;;21.17;14.65;;;;;;;;;;5054754;28;20027;-72
2023/10/24 06:18:54;;;;;;;21.60;13.63;;;;;;;;;;5055116;28;20070;-72
2023/10/24 06:21:19;;;;;;;21.65;14.13;;;;;;;;;;5055068;28;20275;-72
2023/10/24 06:23:45;;;;;;;20.13;13.70;;;;;;;;;;5055055;28;20018;-73
2023/10/24 06:26:16;;;;;;;23.40;14.07;;;;;;;;;;5054896;28;20361;-72
2023/10/24 06:28:42;;;;;;;21.38;13.52;;;;;;;;;;5054903;28;20092;-72
2023/10/24 06:31:07;;;;;;;21.27;13.60;;;;;;;;;;5054588;28;20033;-73
2023/10/24 06:33:33;;;;;;;19.97;13.73;;;;;;;;;;5054251;28;20013;-72
2023/10/24 06:35:59;;;;;;;19.02;13.40;;;;;;;;;;5054397;28;20723;-72
2023/10/24 06:38:25;;;;;;;19.38;13.18;;;;;;;;;;5054433;28;20021;-72
2023/10/24 06:40:50;;;;;;;19.65;13.65;;;;;;;;;;5054371;28;20037;-71
2023/10/24 06:43:16;;;;;;;20.75;13.65;;;;;;;;;;5054320;28;20021;-72
2023/10/24 06:45:45;;;;;;;19.90;13.32;;;;;;;;;;5054366;28;20457;-73
2023/10/24 06:48:11;;;;;;;19.25;12.45;;;;;;;;;;5054201;28;20013;-73
2023/10/24 06:50:36;;;;;;;17.58;12.00;;;;;;;;;;5054496;28;20067;-71
2023/10/24 06:53:01;;;;;;;22.60;12.15;;;;;;;;;;5054398;28;20017;-72
2023/10/24 06:55:27;;;;;;;19.55;12.70;;;;;;;;;;5054582;28;20053;-72
2023/10/24 06:57:52;;;;;;;17.90;12.13;;;;;;;;;;5054257;28;20013;-72
2023/10/24 07:00:17;;;;;;;20.42;11.98;;;;;;;;;;5054489;28;20291;-73
2023/10/24 07:02:42;;;;;;;19.10;11.48;;;;;;;;;;5054164;28;20013;-72
2023/10/24 07:05:08;;;;;;;19.07;12.03;;;;;;;;;;5054631;28;20013;-72
2023/10/24 07:07:33;;;;;;;24.27;12.35;;;;;;;;;;5036267;28;20358;-72
2023/10/24 07:09:58;;;;;;;17.33;10.43;;;;;;;;;;5036005;28;20025;-72
2023/10/24 07:12:23;;;;;;;19.02;12.02;;;;;;;;;;5054039;28;20048;-72
2023/10/24 07:14:53;;;;;;;20.13;12.13;;;;;;;;;;5054097;28;20020;-72
2023/10/24 07:17:18;;;;;;;17.73;10.70;;;;;;;;;;5036018;28;20297;-72
2023/10/24 07:19:43;;;;;;;22.35;11.98;;;;;;;;;;5054072;28;20019;-72
2023/10/24 07:22:08;;;;;;;18.40;11.70;;;;;;;;;;5053894;28;20021;-73
2023/10/24 07:24:33;;;;;;;19.90;11.90;;;;;;;;;;5054036;28;20313;-72
2023/10/24 07:26:58;;;;;;;22.43;11.73;;;;;;;;;;5054034;28;20327;-72
2023/10/24 07:29:26;;;;;;;22.90;12.53;;;;;;;;;;5054012;28;20267;-72
2023/10/24 07:31:51;;;;;;;20.10;10.82;;;;;;;;;;5053929;28;20032;-72
2023/10/24 07:34:17;;;;;;;19.13;12.15;;;;;;;;;;5053591;28;20435;-72
2023/10/24 07:36:42;;;;;;;16.63;11.60;;;;;;;;;;5035953;28;20527;-72
2023/10/24 07:39:07;;;;;;;21.13;12.60;;;;;;;;;;5053900;28;20020;-72
2023/10/24 07:41:32;;;;;;;22.00;12.40;;;;;;;;;;5053554;28;20380;-71
2023/10/24 07:43:57;;;;;;;17.00;11.60;;;;;;;;;;5035597;28;20017;-72
2023/10/24 07:46:23;;;;;;;17.37;11.60;;;;;;;;;;5053668;28;20033;-72
2023/10/24 07:48:51;;;;;;;18.23;11.60;;;;;;;;;;5053577;28;20732;-72
2023/10/24 07:51:16;;;;;;;18.48;12.00;;;;;;;;;;5053542;28;20033;-71
2023/10/24 07:53:41;;;;;;;18.17;12.00;;;;;;;;;;5053578;28;20023;-72
2023/10/24 07:56:07;;;;;;;17.50;12.03;;;;;;;;;;5053798;28;20099;-73
2023/10/24 07:58:32;;;;;;;20.07;11.73;;;;;;;;;;5053017;28;20095;-72
2023/10/24 08:00:57;;;;;;;19.80;13.23;;;;;;;;;;5053731;28;20258;-72
2023/10/24 08:03:22;;;;;;;18.73;12.00;;;;;;;;;;5054217;28;20025;-72
2023/10/24 08:05:47;;;;;;;17.83;12.20;;;;;;;;;;5036580;28;20539;-71
2023/10/24 08:08:13;;;;;;;17.88;12.07;;;;;;;;;;5036965;28;20279;-72
2023/10/24 08:10:38;;;;;;;17.02;12.05;;;;;;;;;;5055174;28;20103;-71
2023/10/24 08:13:04;;;;;;;18.00;12.05;;;;;;;;;;5054610;28;20120;-70
2023/10/24 08:15:30;;;;;;;20.17;12.70;;;;;;;;;;5057762;28;20401;-72
2023/10/24 08:17:55;;;;;;;26.67;12.30;;;;;;;;;;5071180;28;20075;-72
2023/10/24 08:20:20;;;;;;;18.92;12.63;;;;;;;;;;5054899;28;20302;-71
2023/10/24 08:22:46;;;;;;;19.10;12.23;;;;;;;;;;5073833;28;20021;-72
2023/10/24 08:25:11;;;;;;;19.15;12.88;;;;;;;;;;5074975;28;20025;-71
2023/10/24 08:27:36;;;;;;;22.08;13.38;;;;;;;;;;5074919;28;20005;-72
2023/10/24 08:30:03;;;;;;;22.03;12.90;;;;;;;;;;5075163;28;20079;-71
2023/10/24 08:32:28;;;;;;;18.35;13.20;;;;;;;;;;5075233;28;20267;-71
2023/10/24 08:34:53;;;;;;;21.02;13.27;;;;;;;;;;5075977;28;20005;-71
2023/10/24 08:37:18;;;;;;;21.60;13.50;;;;;;;;;;5058610;28;20056;-71
2023/10/24 08:39:43;;;;;;;18.98;12.98;;;;;;;;;;5076848;28;20263;-72
2023/10/24 08:42:13;;;;;;;18.35;12.75;;;;;;;;;;5058993;28;20103;-72
2023/10/24 08:44:39;;;;;;;20.13;12.88;;;;;;;;;;5076392;28;20084;-71
2023/10/24 08:47:04;;;;;;;18.77;12.50;;;;;;;;;;5058885;28;20010;-73
2023/10/24 08:49:31;;;;;;;19.27;12.82;;;;;;;;;;5076002;28;20017;-72
2023/10/24 08:51:56;;;;;;;17.77;12.57;;;;;;;;;;5076626;28;20020;-73
2023/10/24 08:54:21;;;;;;;23.08;12.98;;;;;;;;;;5053710;28;20090;-73
2023/10/24 08:56:47;;;;;;;23.30;12.25;;;;;;;;;;5056858;28;20024;-70
2023/10/24 08:59:12;;;;;;;18.13;12.20;;;;;;;;;;5056522;28;20044;-71
2023/10/24 09:01:41;;;;;;;18.63;12.07;;;;;;;;;;5056306;28;20025;-71
2023/10/24 09:04:07;;;;;;;18.15;12.07;;;;;;;;;;5037414;28;20071;-71
2023/10/24 09:06:33;;;;;;;19.17;12.45;;;;;;;;;;5054448;28;20037;-71
2023/10/24 09:08:58;;;;;;;14.45;10.60;;;;;;;;;;5054634;28;20028;-71
2023/10/24 09:11:23;;;;;;;15.10;11.33;;;;;;;;;;5056964;28;20041;-71
2023/10/24 09:13:48;;;;;;;15.23;11.20;;;;;;;;;;5039581;28;20356;-72
2023/10/24 09:16:15;;;;;;;14.33;9.90;;;;;;;;;;5057364;28;20267;-71
2023/10/24 09:18:40;;;;;;;12.98;9.32;;;;;;;;;;5057105;28;20369;-72
2023/10/24 09:21:06;;;;;;;14.03;9.50;;;;;;;;;;5057381;28;20017;-71
2023/10/24 09:23:33;;;;;;;12.50;9.75;;;;;;;;;;5056558;28;20020;-71
2023/10/24 09:26:07;;;;;;;15.02;8.73;;;;;;;;;;5056803;28;20029;-71
2023/10/24 09:28:36;;;;;;;13.43;9.20;;;;;;;;;;5056468;28;20041;-71
2023/10/24 09:31:01;;;;;;;12.93;9.27;;;;;;;;;;5056227;28;20051;-71
2023/10/24 09:33:27;;;;;;;10.13;8.80;;;;;;;;;;5056181;28;20025;-71
2023/10/24 09:35:52;;;;;;;12.18;9.20;;;;;;;;;;5037995;28;20070;-71
2023/10/24 09:38:20;;;;;;;11.20;8.90;;;;;;;;;;5038269;28;20477;-71
2023/10/24 09:40:45;;;;;;;14.20;9.00;;;;;;;;;;5055930;28;20058;-71
2023/10/24 09:43:19;;;;;;;12.43;8.73;;;;;;;;;;5056247;28;20029;-72
2023/10/24 09:45:44;;;;;;;12.55;9.07;;;;;;;;;;5055803;28;20626;-71
2023/10/24 09:48:13;;;;;;;10.48;8.30;;;;;;;;;;5055808;28;20025;-72
2023/10/24 09:50:39;;;;;;;10.75;8.63;;;;;;;;;;5055583;28;20075;-71
2023/10/24 09:53:04;;;;;;;12.73;8.73;;;;;;;;;;5055906;28;20009;-71
2023/10/24 09:55:30;;;;;;;11.60;7.60;;;;;;;;;;5055717;28;20047;-71
2023/10/24 09:57:56;;;;;;;11.63;7.88;;;;;;;;;;5037576;28;20025;-72
2023/10/24 10:00:21;;;;;;;9.38;7.50;;;;;;;;;;5055717;28;20092;-72
2023/10/24 10:02:47;;;;;;;10.05;6.93;;;;;;;;;;5037519;28;20024;-71
2023/10/24 10:05:13;;;;;;;10.63;6.95;;;;;;;;;;5055501;28;20017;-71
2023/10/24 10:07:39;;;;;;;12.20;6.53;;;;;;;;;;5055511;28;20067;-72
2023/10/24 10:10:05;;;;;;;11.70;6.80;;;;;;;;;;5055452;28;20020;-71
2023/10/24 10:12:31;;;;;;;10.05;6.82;;;;;;;;;;5054925;28;20489;-71
2023/10/24 10:15:08;;;;;;;10.02;6.90;;;;;;;;;;5055262;28;20044;-71
2023/10/24 10:17:52;;;;;;;13.02;6.80;;;;;;;;;;5055105;28;20044;-71
2023/10/24 10:20:28;;;;;;;12.48;6.97;;;;;;;;;;5055088;28;20062;-71
2023/10/24 10:23:08;;;;;;;11.07;6.80;;;;;;;;;;5036445;28;20052;-71
2023/10/24 10:25:52;;;;;;;10.98;6.88;;;;;;;;;;5054907;28;20484;-71
2023/10/24 10:28:38;;;;;;;11.93;6.93;;;;;;;;;;5037111;28;20032;-72
2023/10/24 10:31:15;;;;;;;10.20;6.43;;;;;;;;;;5054158;28;20508;-70
2023/10/24 10:33:40;;;;;;;9.75;7.20;;;;;;;;;;5054803;28;20028;-71
2023/10/24 10:36:08;;;;;;;10.57;7.10;;;;;;;;;;5054906;28;20465;-72
2023/10/24 10:38:35;;;;;;;9.57;7.43;;;;;;;;;;5054879;28;20514;-72
2023/10/24 10:41:18;;;;;;;11.25;7.05;;;;;;;;;;5054895;28;20025;-71
2023/10/24 10:43:44;;;;;;;13.82;7.55;;;;;;;;;;5036877;28;20036;-71
2023/10/24 10:46:16;;;;;;;9.75;7.43;;;;;;;;;;5054589;28;20021;-72
2023/10/24 10:48:42;;;;;;;11.25;7.97;;;;;;;;;;5054654;28;20017;-72
2023/10/24 10:51:07;;;;;;;13.63;8.30;;;;;;;;;;5054498;28;20421;-72
2023/10/24 10:53:36;;;;;;;14.43;8.75;;;;;;;;;;5054644;28;20017;-71
2023/10/24 10:56:17;;;;;;;11.77;9.13;;;;;;;;;;5054539;28;20033;-71
2023/10/24 10:58:42;;;;;;;15.10;9.30;;;;;;;;;;5036494;28;20465;-71
2023/10/24 11:01:12;;;;;;;15.03;9.57;;;;;;;;;;5054334;28;20025;-71
2023/10/24 11:03:44;;;;;;;20.92;10.30;;;;;;;;;;5054270;28;20271;-72
2023/10/24 11:06:09;;;;;;;14.07;9.75;;;;;;;;;;5054282;28;20021;-72
2023/10/24 11:08:34;;;;;;;13.73;9.83;;;;;;;;;;5054173;28;20032;-70
2023/10/24 11:11:00;;;;;;;14.98;9.70;;;;;;;;;;5054202;28;20302;-72
2023/10/24 11:13:35;;;;;;;20.52;11.32;;;;;;;;;;5053919;28;20037;-72
2023/10/24 11:16:01;;;;;;;14.88;10.50;;;;;;;;;;5053756;28;20056;-72
2023/10/24 11:18:26;;;;;;;14.30;10.43;;;;;;;;;;5036335;28;20013;-72
2023/10/24 11:20:52;;;;;;;12.95;8.35;;;;;;;;;;5054058;28;20021;-72
2023/10/24 11:23:18;;;;;;;15.40;10.05;;;;;;;;;;5054152;28;20013;-71
2023/10/24 11:25:43;;;;;;;14.37;10.47;;;;;;;;;;5053731;28;20388;-71
2023/10/24 11:28:08;;;;;;;14.73;9.90;;;;;;;;;;5053203;28;20024;-70
2023/10/24 11:30:34;;;;;;;12.23;10.00;;;;;;;;;;5052904;28;20108;-71
2023/10/24 11:33:00;;;;;;;12.75;9.27;;;;;;;;;;5052216;28;20017;-71
2023/10/24 11:35:25;;;;;;;11.60;9.30;;;;;;;;;;5053167;28;20480;-71
2023/10/24 11:37:50;;;;;;;17.13;9.50;;;;;;;;;;5053664;28;20021;-71
2023/10/24 11:40:16;;;;;;;12.37;8.90;;;;;;;;;;5053602;28;20377;-71
2023/10/24 11:42:41;;;;;;;14.40;9.90;;;;;;;;;;5053781;28;20338;-71
2023/10/24 11:45:06;;;;;;;10.50;8.77;;;;;;;;;;5035761;28;20108;-71
2023/10/24 11:47:31;;;;;;;13.15;8.88;;;;;;;;;;5053462;28;20013;-70
2023/10/24 11:49:56;;;;;;;12.47;8.83;;;;;;;;;;5052551;28;20102;-72
2023/10/24 11:52:22;;;;;;;13.85;8.77;;;;;;;;;;5053323;28;20305;-71
2023/10/24 11:54:52;;;;;;;14.52;8.35;;;;;;;;;;5053378;28;20109;-71
2023/10/24 11:57:17;;;;;;;10.80;7.75;;;;;;;;;;5053388;28;20083;-71
2023/10/24 11:59:42;;;;;;;11.70;8.07;;;;;;;;;;5053260;28;20383;-72
2023/10/24 12:02:07;;;;;;;9.00;7.43;;;;;;;;;;5053320;28;20021;-72
2023/10/24 12:04:33;;;;;;;11.52;7.60;;;;;;;;;;5053418;28;20270;-72
2023/10/24 12:07:05;;;;;;;11.32;6.70;;;;;;;;;;5053424;28;20472;-72
2023/10/24 12:09:36;;;;;;;13.20;6.97;;;;;;;;;;5053772;28;20457;-72
2023/10/24 12:12:05;;;;;;;9.95;5.70;;;;;;;;;;5053616;28;20560;-72
2023/10/24 12:14:30;;;;;;;8.07;5.38;;;;;;;;;;5053880;28;20452;-72
2023/10/24 12:16:59;;;;;;;8.07;5.30;;;;;;;;;;5053642;28;20138;-72
2023/10/24 12:19:24;;;;;;;7.97;4.80;;;;;;;;;;5053752;28;20009;-72
2023/10/24 12:21:49;;;;;;;7.13;4.85;;;;;;;;;;5053569;28;20473;-72
2023/10/24 12:24:15;;;;;;;6.43;4.50;;;;;;;;;;5053490;28;20360;-72
2023/10/24 12:26:40;;;;;;;6.38;4.60;;;;;;;;;;5053405;28;20480;-72
2023/10/24 12:29:09;;;;;;;7.15;4.50;;;;;;;;;;5053841;28;20029;-72
2023/10/24 12:31:35;;;;;;;6.57;4.18;;;;;;;;;;5035682;28;20412;-73
2023/10/24 12:34:00;;;;;;;11.63;4.45;;;;;;;;;;5053588;28;20050;-72
2023/10/24 12:36:25;;;;;;;5.27;4.10;;;;;;;;;;5035585;28;20036;-72
2023/10/24 12:38:51;;;;;;;5.10;3.83;;;;;;;;;;5035561;28;20362;-72
2023/10/24 12:41:16;;;;;;;6.47;4.35;;;;;;;;;;5053362;28;20079;-72
2023/10/24 12:43:41;;;;;;;7.83;4.20;;;;;;;;;;5053400;28;20495;-73
2023/10/24 12:46:06;;;;;;;7.03;4.30;;;;;;;;;;5056367;28;20271;-72
2023/10/24 12:48:32;;;;;;;6.60;4.03;;;;;;;;;;5057442;28;20264;-73
2023/10/24 12:50:57;;;;;;;6.97;3.72;;;;;;;;;;5056827;28;20325;-73
2023/10/24 12:53:24;;;;;;;5.85;3.60;;;;;;;;;;5056759;28;20013;-72
2023/10/24 12:55:49;;;;;;;5.95;3.60;;;;;;;;;;5056719;28;20040;-72
2023/10/24 12:58:14;;;;;;;5.17;3.43;;;;;;;;;;5038767;28;20055;-73
2023/10/24 13:00:40;;;;;;;7.97;3.30;;;;;;;;;;5056503;28;20338;-73
2023/10/24 13:03:05;;;;;;;4.63;3.03;;;;;;;;;;5056541;28;20267;-73
2023/10/24 13:05:31;;;;;;;6.83;2.87;;;;;;;;;;5056391;28;20267;-72
2023/10/24 13:07:57;;;;;;;3.55;2.40;;;;;;;;;;5056339;28;20340;-71
2023/10/24 13:10:22;;;;;;;4.28;2.20;;;;;;;;;;5038341;28;20017;-72
2023/10/24 13:12:47;;;;;;;4.97;2.40;;;;;;;;;;5038362;28;20433;-72
2023/10/24 13:15:13;;;;;;;5.00;2.43;;;;;;;;;;5038314;28;20023;-72
2023/10/24 13:17:38;;;;;;;6.07;2.40;;;;;;;;;;5056090;28;20408;-72
2023/10/24 13:20:03;;;;;;;9.00;2.40;;;;;;;;;;5056042;28;20362;-72
2023/10/24 13:22:28;;;;;;;4.78;2.30;;;;;;;;;;5038286;28;20614;-72
2023/10/24 13:24:53;;;;;;;5.35;2.60;;;;;;;;;;5056229;28;20444;-72
2023/10/24 13:27:19;;;;;;;5.63;2.43;;;;;;;;;;5056080;28;20032;-71
2023/10/24 13:29:44;;;;;;;3.13;2.40;;;;;;;;;;5056055;28;20168;-72
2023/10/24 13:32:10;;;;;;;3.97;2.38;;;;;;;;;;5055937;28;20045;-72
2023/10/24 13:34:36;;;;;;;4.80;2.37;;;;;;;;;;5056002;28;20021;-72
2023/10/24 13:37:01;;;;;;;4.20;2.50;;;;;;;;;;5055498;28;20822;-72
2023/10/24 13:39:26;;;;;;;7.63;2.30;;;;;;;;;;5054821;28;20095;-71
2023/10/24 13:41:51;;;;;;;5.70;2.50;;;;;;;;;;5056312;28;20259;-73
2023/10/24 13:44:16;;;;;;;4.90;2.53;;;;;;;;;;5056344;28;20032;-72
2023/10/24 13:46:42;;;;;;;5.65;2.35;;;;;;;;;;5056053;28;20468;-73
2023/10/24 13:49:07;;;;;;;5.88;2.30;;;;;;;;;;5056306;28;20024;-72
2023/10/24 13:51:32;;;;;;;4.50;2.60;;;;;;;;;;5055957;28;20033;-72
2023/10/24 13:53:57;;;;;;;3.92;2.30;;;;;;;;;;5056066;28;20460;-73
2023/10/24 13:56:23;;;;;;;7.20;2.75;;;;;;;;;;5036684;28;20026;-74
2023/10/24 13:58:48;;;;;;;6.47;2.58;;;;;;;;;;5037601;28;20128;-72
2023/10/24 14:01:13;;;;;;;4.63;2.40;;;;;;;;;;5055720;28;20017;-73
2023/10/24 14:03:39;;;;;;;4.80;2.80;;;;;;;;;;5055433;28;20766;-73
2023/10/24 14:06:05;;;;;;;4.68;2.88;;;;;;;;;;5055444;28;20131;-73
2023/10/24 14:08:30;;;;;;;5.47;2.75;;;;;;;;;;5055522;28;20021;-73
2023/10/24 14:10:55;;;;;;;4.82;2.90;;;;;;;;;;5055289;28;20024;-73
2023/10/24 14:13:21;;;;;;;6.97;2.80;;;;;;;;;;5055024;28;20512;-73
2023/10/24 14:15:46;;;;;;;6.20;2.95;;;;;;;;;;5055705;28;20360;-74
2023/10/24 14:18:12;;;;;;;6.00;2.90;;;;;;;;;;5059571;28;20009;-71